createdAt,value
2023-04-28T00:00:25.874Z,2.45
2023-04-28T00:04:32.693Z,4.15
2023-04-28T00:08:39.437Z,6.55
2023-04-28T00:12:46.100Z,7.22
2023-04-28T00:16:52.925Z,5.85
2023-04-28T00:21:01.516Z,2.40
2023-04-28T00:25:09.018Z,8.77
2023-04-28T00:29:15.656Z,5.32
2023-04-28T00:33:22.288Z,2.80
2023-04-28T00:37:28.965Z,3.80
2023-04-28T00:41:35.915Z,3.97
2023-04-28T00:45:42.639Z,4.40
2023-04-28T00:49:49.657Z,3.75
2023-04-28T00:53:57.486Z,4.82
2023-04-28T00:58:05.902Z,2.50
2023-04-28T01:02:19.239Z,2.97
2023-04-28T01:06:26.788Z,3.58
2023-04-28T01:10:33.505Z,4.57
2023-04-28T01:14:40.447Z,2.92
2023-04-28T01:18:48.186Z,6.25
2023-04-28T01:22:54.873Z,5.00
2023-04-28T01:27:01.604Z,4.38
2023-04-28T01:31:08.287Z,8.82
2023-04-28T01:35:14.981Z,3.33
2023-04-28T01:39:21.699Z,2.85
2023-04-28T01:43:28.994Z,5.72
2023-04-28T01:47:35.869Z,5.00
2023-04-28T01:51:42.963Z,3.38
2023-04-28T01:55:49.957Z,4.40
2023-04-28T01:59:56.778Z,4.15
2023-04-28T02:04:03.600Z,6.45
2023-04-28T02:08:10.388Z,3.63
2023-04-28T02:12:17.582Z,3.60
2023-04-28T02:16:24.366Z,6.20
2023-04-28T02:20:33.048Z,2.97
2023-04-28T02:24:39.987Z,8.13
2023-04-28T02:28:46.666Z,5.35
2023-04-28T02:32:53.328Z,6.82
2023-04-28T02:37:00.021Z,3.10
2023-04-28T02:41:09.266Z,4.78
2023-04-28T02:45:16.349Z,4.38
2023-04-28T02:49:23.073Z,4.45
2023-04-28T02:53:29.750Z,12.90
2023-04-28T02:57:36.417Z,4.63
2023-04-28T03:01:43.098Z,4.80
2023-04-28T03:05:49.788Z,4.63
2023-04-28T03:09:56.510Z,2.85
2023-04-28T03:14:03.175Z,3.25
2023-04-28T03:18:09.880Z,5.03
2023-04-28T03:22:16.726Z,4.15
2023-04-28T03:26:23.405Z,11.25
2023-04-28T03:30:30.177Z,9.10
2023-04-28T03:34:36.864Z,3.22
2023-04-28T03:38:43.972Z,4.72
2023-04-28T03:42:50.655Z,3.65
2023-04-28T03:46:57.381Z,5.05
2023-04-28T03:51:04.296Z,4.30
2023-04-28T03:55:11.090Z,3.63
2023-04-28T03:59:17.956Z,5.20
2023-04-28T04:03:26.304Z,8.60
2023-04-28T04:07:33.363Z,4.57
2023-04-28T04:11:40.147Z,4.63
2023-04-28T04:15:46.885Z,2.78
2023-04-28T04:19:53.599Z,7.40
2023-04-28T04:24:00.367Z,4.85
2023-04-28T04:28:07.014Z,4.03
2023-04-28T04:32:13.681Z,3.97
2023-04-28T04:36:20.356Z,5.43
2023-04-28T04:40:27.377Z,7.00
2023-04-28T04:44:34.055Z,2.40
2023-04-28T04:48:40.726Z,2.80
2023-04-28T04:52:47.479Z,4.38
2023-04-28T04:56:54.202Z,5.07
2023-04-28T05:01:00.868Z,3.80
2023-04-28T05:05:19.663Z,5.20
2023-04-28T05:09:27.717Z,4.45
2023-04-28T05:13:34.396Z,6.78
2023-04-28T05:17:41.188Z,5.47
2023-04-28T05:21:48.358Z,4.82
2023-04-28T05:25:55.098Z,8.40
2023-04-28T05:30:02.044Z,7.85
2023-04-28T05:34:08.732Z,8.68
2023-04-28T05:38:15.671Z,6.88
2023-04-28T05:42:22.348Z,12.50
2023-04-28T05:46:30.989Z,5.45
2023-04-28T05:50:39.062Z,19.80
2023-04-28T05:54:45.964Z,9.00
2023-04-28T05:58:52.699Z,5.10
2023-04-28T06:02:59.502Z,7.07
2023-04-28T06:07:06.511Z,5.22
2023-04-28T06:11:13.183Z,7.53
2023-04-28T06:15:19.878Z,7.13
2023-04-28T06:19:27.033Z,6.53
2023-04-28T06:23:33.899Z,11.82
2023-04-28T06:27:40.764Z,7.28
2023-04-28T06:31:47.463Z,7.82
2023-04-28T06:35:54.161Z,8.25
2023-04-28T06:40:01.031Z,13.63
2023-04-28T06:44:07.695Z,10.98
2023-04-28T06:48:14.581Z,8.88
2023-04-28T06:52:33.067Z,7.65
2023-04-28T06:56:43.737Z,9.25
2023-04-28T07:00:50.688Z,10.40
2023-04-28T07:04:57.491Z,9.55
2023-04-28T07:09:04.587Z,10.63
2023-04-28T07:13:11.624Z,11.25
2023-04-28T07:17:18.738Z,10.27
2023-04-28T07:21:25.833Z,10.43
2023-04-28T07:25:32.674Z,12.85
2023-04-28T07:29:39.320Z,13.93
2023-04-28T07:33:46.098Z,12.40
2023-04-28T07:37:53.128Z,15.05
2023-04-28T07:42:00.746Z,10.15
2023-04-28T07:46:08.483Z,9.93
2023-04-28T07:50:16.167Z,15.23
2023-04-28T07:54:23.419Z,9.75
2023-04-28T07:58:31.055Z,14.65
2023-04-28T08:02:37.793Z,14.85
2023-04-28T08:06:44.510Z,16.08
2023-04-28T08:10:52.340Z,9.52
2023-04-28T08:14:59.021Z,14.13
2023-04-28T08:19:05.889Z,14.25
2023-04-28T08:23:12.722Z,12.82
2023-04-28T08:27:19.472Z,11.25
2023-04-28T08:31:26.247Z,11.02
2023-04-28T08:35:33.158Z,14.30
2023-04-28T08:39:39.809Z,15.52
2023-04-28T08:43:46.476Z,19.35
2023-04-28T08:47:55.084Z,12.57
2023-04-28T08:52:01.870Z,10.73
2023-04-28T08:56:10.831Z,12.30
2023-04-28T09:00:18.040Z,14.07
2023-04-28T09:04:25.058Z,13.05
2023-04-28T09:08:32.284Z,12.07
2023-04-28T09:12:38.982Z,14.02
2023-04-28T09:16:45.956Z,17.65
2023-04-28T09:20:52.765Z,12.77
2023-04-28T09:25:11.482Z,16.08
2023-04-28T09:29:18.541Z,13.63
2023-04-28T09:33:26.021Z,12.82
2023-04-28T09:37:33.462Z,12.75
2023-04-28T09:41:44.091Z,10.95
2023-04-28T09:45:50.867Z,12.35
2023-04-28T09:49:59.847Z,11.07
2023-04-28T09:54:07.190Z,12.85
2023-04-28T09:58:15.050Z,16.10
2023-04-28T10:02:42.803Z,13.60
2023-04-28T10:06:48.891Z,17.88
2023-04-28T10:10:56.832Z,14.55
2023-04-28T10:15:04.838Z,21.80
2023-04-28T10:19:12.217Z,17.10
2023-04-28T10:23:31.823Z,18.10
2023-04-28T10:27:46.940Z,14.77
2023-04-28T10:32:15.751Z,24.20
2023-04-28T10:36:55.857Z,16.75
2023-04-28T10:41:03.414Z,15.20
2023-04-28T10:45:10.118Z,20.33
2023-04-28T10:49:16.789Z,20.23
2023-04-28T10:53:44.022Z,16.30
2023-04-28T10:58:16.862Z,18.30
2023-04-28T11:02:39.588Z,19.48
2023-04-28T11:07:21.477Z,24.23
2023-04-28T11:11:34.789Z,16.80
2023-04-28T11:15:41.701Z,16.75
2023-04-28T11:19:51.376Z,21.80
2023-04-28T11:23:58.836Z,18.67
2023-04-28T11:28:07.256Z,15.80
2023-04-28T11:32:14.032Z,13.98
2023-04-28T11:36:29.624Z,14.60
2023-04-28T11:40:36.413Z,14.75
2023-04-28T11:44:53.281Z,14.23
2023-04-28T11:49:02.424Z,13.10
2023-04-28T11:53:09.089Z,16.63
2023-04-28T11:57:21.019Z,16.80
2023-04-28T12:01:27.713Z,15.70
2023-04-28T12:05:38.766Z,12.48
2023-04-28T12:10:10.114Z,14.73
2023-04-28T12:14:17.012Z,13.77
2023-04-28T12:18:23.952Z,13.13
2023-04-28T12:22:31.582Z,10.27
2023-04-28T12:26:38.393Z,12.82
2023-04-28T12:30:45.425Z,11.35
2023-04-28T12:34:52.469Z,13.30
2023-04-28T12:38:59.215Z,12.75
2023-04-28T12:43:05.866Z,12.20
2023-04-28T12:47:12.534Z,7.97
2023-04-28T12:51:19.219Z,5.07
2023-04-28T12:55:27.119Z,4.15
2023-04-28T12:59:33.846Z,5.28
2023-04-28T13:03:40.671Z,3.15
2023-04-28T13:07:49.402Z,4.68
2023-04-28T13:11:56.087Z,3.28
2023-04-28T13:16:03.663Z,2.40
2023-04-28T13:20:10.710Z,3.97
2023-04-28T13:24:17.360Z,2.17
2023-04-28T13:28:24.161Z,4.80
2023-04-28T13:32:31.738Z,3.17
2023-04-28T13:36:38.634Z,2.10
2023-04-28T13:40:45.481Z,3.03
2023-04-28T13:44:52.350Z,3.42
2023-04-28T13:48:59.140Z,2.58
2023-04-28T13:53:05.808Z,2.25
2023-04-28T13:57:13.633Z,3.28
2023-04-28T14:01:20.754Z,3.35
2023-04-28T14:05:29.696Z,5.50
2023-04-28T14:09:40.489Z,4.13
2023-04-28T14:13:47.139Z,2.15
2023-04-28T14:17:53.890Z,2.58
2023-04-28T14:22:01.131Z,1.52
2023-04-28T14:26:07.845Z,4.35
2023-04-28T14:30:14.491Z,0.70
2023-04-28T14:34:21.233Z,0.70
2023-04-28T14:38:29.502Z,1.98
2023-04-28T14:42:37.273Z,1.48
2023-04-28T14:46:46.189Z,0.80
2023-04-28T14:50:52.891Z,1.33
2023-04-28T14:55:00.228Z,1.00
2023-04-28T14:59:06.941Z,1.00
2023-04-28T15:03:14.513Z,0.50
2023-04-28T15:07:22.076Z,0.70
2023-04-28T15:11:28.720Z,0.55
2023-04-28T15:15:35.956Z,0.98
2023-04-28T15:19:42.858Z,0.60
2023-04-28T15:23:49.584Z,4.10
2023-04-28T15:27:56.235Z,0.70
2023-04-28T15:32:02.945Z,1.02
2023-04-28T15:36:09.778Z,2.35
2023-04-28T15:40:17.985Z,1.25
2023-04-28T15:44:24.669Z,1.05
2023-04-28T15:48:31.333Z,1.23
2023-04-28T15:52:40.174Z,1.48
2023-04-28T15:56:46.973Z,1.85
2023-04-28T16:00:53.845Z,2.40
2023-04-28T16:05:02.498Z,2.08
2023-04-28T16:09:09.195Z,2.40
2023-04-28T16:13:15.952Z,2.70
2023-04-28T16:17:25.311Z,3.33
2023-04-28T16:21:33.303Z,3.50
2023-04-28T16:25:41.143Z,3.03
2023-04-28T16:29:47.853Z,3.70
2023-04-28T16:33:55.212Z,3.25
2023-04-28T16:38:01.890Z,4.63
2023-04-28T16:42:08.571Z,3.90
2023-04-28T16:46:15.832Z,4.05
2023-04-28T16:50:22.557Z,4.38
2023-04-28T16:54:30.441Z,6.47
2023-04-28T16:58:37.176Z,5.32
2023-04-28T17:02:44.135Z,3.28
2023-04-28T17:06:51.759Z,5.07
2023-04-28T17:11:00.198Z,6.03
2023-04-28T17:15:08.000Z,7.43
2023-04-28T17:19:14.693Z,9.10
2023-04-28T17:23:21.846Z,8.95
2023-04-28T17:27:28.602Z,8.02
2023-04-28T17:31:38.243Z,8.32
2023-04-28T17:35:45.755Z,8.00
2023-04-28T17:39:52.697Z,7.43
2023-04-28T17:43:59.634Z,9.52
2023-04-28T17:48:06.505Z,8.73
2023-04-28T17:52:15.414Z,9.60
2023-04-28T17:56:22.296Z,10.80
2023-04-28T18:00:29.088Z,10.60
2023-04-28T18:04:36.053Z,10.70
2023-04-28T18:08:42.801Z,12.32
2023-04-28T18:12:51.606Z,11.52
2023-04-28T18:17:00.441Z,10.05
2023-04-28T18:21:07.108Z,10.40
2023-04-28T18:25:16.813Z,6.88
2023-04-28T18:29:23.513Z,7.35
2023-04-28T18:33:30.170Z,7.13
2023-04-28T18:37:37.161Z,8.60
2023-04-28T18:41:44.240Z,8.18
2023-04-28T18:45:50.990Z,6.35
2023-04-28T18:49:57.984Z,9.23
2023-04-28T18:54:05.759Z,11.95
2023-04-28T18:58:15.010Z,15.98
2023-04-28T19:02:21.766Z,13.73
2023-04-28T19:06:28.601Z,14.55
2023-04-28T19:10:36.557Z,9.40
2023-04-28T19:14:43.378Z,12.75
2023-04-28T19:18:50.047Z,13.95
2023-04-28T19:22:56.921Z,11.18
2023-04-28T19:27:03.625Z,17.45
2023-04-28T19:31:10.952Z,9.10
2023-04-28T19:35:17.664Z,13.07
2023-04-28T19:39:24.344Z,16.13
2023-04-28T19:43:31.617Z,14.55
2023-04-28T19:47:38.559Z,16.42
2023-04-28T19:51:45.435Z,14.55
2023-04-28T19:55:52.193Z,19.38
2023-04-28T19:59:58.886Z,17.02
2023-04-28T20:04:05.602Z,23.15
2023-04-28T20:08:12.808Z,17.00
2023-04-28T20:12:19.528Z,20.67
2023-04-28T20:16:27.042Z,18.85
2023-04-28T20:20:34.282Z,19.60
2023-04-28T20:24:41.030Z,20.10
2023-04-28T20:28:48.456Z,23.48
2023-04-28T20:32:55.133Z,25.25
2023-04-28T20:37:06.434Z,29.55
2023-04-28T20:41:13.110Z,30.92
2023-04-28T20:45:20.274Z,31.08
2023-04-28T20:49:28.264Z,34.80
2023-04-28T20:53:34.927Z,34.95
2023-04-28T20:57:41.715Z,39.40
2023-04-28T21:01:48.599Z,38.33
2023-04-28T21:05:56.040Z,46.38
2023-04-28T21:10:02.808Z,46.53
2023-04-28T21:14:10.050Z,51.22
2023-04-28T21:18:16.997Z,50.67
2023-04-28T21:22:24.974Z,46.90
2023-04-28T21:26:31.777Z,52.20
2023-04-28T21:30:38.458Z,53.45
2023-04-28T21:34:48.938Z,50.08
2023-04-28T21:38:55.640Z,53.85
2023-04-28T21:43:02.410Z,54.53
2023-04-28T21:47:09.130Z,45.72
2023-04-28T21:51:16.625Z,40.85
2023-04-28T21:55:23.268Z,43.40
2023-04-28T21:59:30.093Z,40.38
2023-04-28T22:03:38.834Z,43.38
2023-04-28T22:07:45.624Z,44.75
2023-04-28T22:11:52.276Z,46.90
2023-04-28T22:15:59.288Z,46.65
2023-04-28T22:20:06.795Z,43.92
2023-04-28T22:24:14.045Z,41.17
2023-04-28T22:28:20.860Z,37.65
2023-04-28T22:32:27.571Z,39.78
2023-04-28T22:36:34.247Z,44.40
2023-04-28T22:40:41.041Z,39.88
2023-04-28T22:44:47.735Z,44.90
2023-04-28T22:48:54.496Z,36.85
2023-04-28T22:53:01.179Z,37.15
2023-04-28T22:57:08.025Z,37.30
2023-04-28T23:01:14.834Z,39.33
2023-04-28T23:05:21.604Z,34.78
2023-04-28T23:09:28.284Z,42.95
2023-04-28T23:13:35.255Z,34.67
2023-04-28T23:17:42.171Z,38.88
2023-04-28T23:21:48.922Z,30.80
2023-04-28T23:25:56.687Z,36.72
2023-04-28T23:30:03.554Z,32.80
2023-04-28T23:34:10.237Z,32.17
2023-04-28T23:38:17.022Z,34.72
2023-04-28T23:42:24.222Z,33.38
2023-04-28T23:46:30.922Z,28.95
2023-04-28T23:50:37.589Z,33.50
2023-04-28T23:54:44.280Z,35.00
2023-04-28T23:58:51.267Z,29.35
